Lampman, Canada
Current Conditions -  °F | °C
As of 7:00 PM on Tuesday 21 Oct 2014 (Local Time) from CYEN Reporting Station
Few Clouds Few Clouds  
Wind Chill: 54°   Ceiling: Unl
Heat Index: 54°   Visibility: 15mi
Dew Point: 43°   Wind: 7mph
Humidity: 67%   Direction: 90°E
Pressure: 29.59"   Gusts: NA
Location:  49.38°N, 102.75°W
Report Text: CYEN 220100Z 09006KT 15SM FEW120 FEW260 12/06 A2959 RMK AC1CI0SLP032
Loading
Personal Weather Stations






























Interactive Weather Map
Tropical Storm Tracking
New forecast layout! Learn more

10-Day Weather Forecast

Advertisements
Track Severe Weather on mobile